createdAt,value
2023-05-15T00:01:18.813Z,100121.06
2023-05-15T00:06:21.413Z,100164.75
2023-05-15T00:11:24.007Z,100162.91
2023-05-15T00:16:26.483Z,100109.94
2023-05-15T00:21:29.082Z,100161.72
2023-05-15T00:26:31.508Z,100153.75
2023-05-15T00:31:34.016Z,100016.50
2023-05-15T00:36:36.547Z,100085.03
2023-05-15T00:41:39.576Z,100101.53
2023-05-15T00:46:42.627Z,100172.50
2023-05-15T00:51:45.089Z,100166.19
2023-05-15T00:56:48.570Z,100160.81
2023-05-15T01:01:52.330Z,100147.56
2023-05-15T01:06:54.849Z,100096.47
2023-05-15T01:11:58.159Z,100127.16
2023-05-15T01:17:01.534Z,100148.91
2023-05-15T01:22:22.420Z,100136.53
2023-05-15T01:27:36.309Z,100167.94
2023-05-15T01:32:56.221Z,100095.81
2023-05-15T01:38:04.582Z,100170.84
2023-05-15T01:43:10.124Z,100147.31
2023-05-15T01:48:13.320Z,100154.28
2023-05-15T01:53:16.009Z,100067.19
2023-05-15T01:58:19.092Z,99936.81
2023-05-15T02:03:22.912Z,100148.81
2023-05-15T02:08:26.470Z,100137.34
2023-05-15T02:13:29.558Z,100174.19
2023-05-15T02:18:32.077Z,100167.22
2023-05-15T02:23:54.518Z,100165.41
2023-05-15T02:29:30.937Z,100187.78
2023-05-15T02:34:53.859Z,100185.13
2023-05-15T02:40:00.194Z,100128.69
2023-05-15T02:45:03.754Z,100147.25
2023-05-15T02:50:07.787Z,100154.28
2023-05-15T02:55:10.827Z,100179.91
2023-05-15T03:00:14.053Z,100188.94
2023-05-15T03:05:16.790Z,100195.97
2023-05-15T03:10:19.312Z,100098.44
2023-05-15T03:15:22.460Z,100201.59
2023-05-15T03:20:25.218Z,100199.25
2023-05-15T03:25:28.006Z,100171.34
2023-05-15T03:30:30.699Z,100198.00
2023-05-15T03:35:34.218Z,100188.78
2023-05-15T03:40:41.379Z,100175.19
2023-05-15T03:45:44.369Z,100169.50
2023-05-15T03:50:46.940Z,100151.59
2023-05-15T03:55:49.608Z,100163.69
2023-05-15T04:00:52.145Z,100114.97
2023-05-15T04:05:54.695Z,100196.19
2023-05-15T04:10:57.247Z,100221.97
2023-05-15T04:16:01.306Z,100152.22
2023-05-15T04:21:04.115Z,100182.31
2023-05-15T04:26:06.594Z,100162.47
2023-05-15T04:31:09.188Z,100218.88
2023-05-15T04:36:11.809Z,100134.03
2023-05-15T04:41:14.403Z,100174.63
2023-05-15T04:46:17.071Z,100170.41
2023-05-15T04:51:19.614Z,100112.72
2023-05-15T04:56:22.076Z,100215.38
2023-05-15T05:01:24.589Z,100187.47
2023-05-15T05:06:28.608Z,100152.50
2023-05-15T05:11:32.312Z,100205.13
2023-05-15T05:16:35.108Z,100185.91
2023-05-15T05:21:37.628Z,100165.78
2023-05-15T05:26:40.068Z,100189.41
2023-05-15T05:31:42.594Z,100171.03
2023-05-15T05:36:45.084Z,100199.00
2023-05-15T05:41:47.550Z,100191.94
2023-05-15T05:46:49.999Z,100174.41
2023-05-15T05:51:53.042Z,100154.16
2023-05-15T05:56:55.475Z,100187.31
2023-05-15T06:01:58.244Z,100166.22
2023-05-15T06:07:00.692Z,100124.13
2023-05-15T06:12:05.466Z,100175.63
2023-05-15T06:17:08.311Z,100186.13
2023-05-15T06:22:10.906Z,100156.41
2023-05-15T06:27:13.340Z,100117.00
2023-05-15T06:32:15.820Z,100164.16
2023-05-15T06:37:21.701Z,100155.22
2023-05-15T06:42:24.106Z,100177.72
2023-05-15T06:47:26.655Z,100164.38
2023-05-15T06:52:29.758Z,100110.06
2023-05-15T06:57:33.794Z,100108.91
2023-05-15T07:02:36.348Z,100170.72
2023-05-15T07:07:38.904Z,100126.75
2023-05-15T07:12:41.591Z,100122.06
2023-05-15T07:17:44.220Z,100113.88
2023-05-15T07:22:55.822Z,100057.81
2023-05-15T07:27:59.679Z,100125.69
2023-05-15T07:33:02.186Z,100114.97
2023-05-15T07:38:05.016Z,100110.22
2023-05-15T07:43:07.599Z,100115.28
2023-05-15T07:48:17.504Z,100067.94
2023-05-15T07:53:23.083Z,100099.97
2023-05-15T07:58:26.615Z,100077.88
2023-05-15T08:03:29.501Z,100127.28
2023-05-15T08:08:32.109Z,100103.44
2023-05-15T08:13:34.725Z,100122.28
2023-05-15T08:18:37.733Z,100087.84
2023-05-15T08:23:40.242Z,100053.38
2023-05-15T08:28:42.969Z,100104.06
2023-05-15T08:33:46.948Z,100118.16
2023-05-15T08:38:49.436Z,100048.47
2023-05-15T08:43:53.571Z,100073.75
2023-05-15T08:48:56.998Z,100106.56
2023-05-15T08:53:59.876Z,100073.28
2023-05-15T08:59:02.476Z,100030.09
2023-05-15T09:04:05.461Z,100074.81
2023-05-15T09:09:13.377Z,100085.59
2023-05-15T09:14:15.862Z,100057.44
2023-05-15T09:19:23.425Z,100063.31
2023-05-15T09:24:28.663Z,100034.28
2023-05-15T09:29:32.151Z,100065.38
2023-05-15T09:34:39.315Z,100053.06
2023-05-15T09:39:43.330Z,100015.63
2023-05-15T09:44:46.779Z,100048.78
2023-05-15T09:49:49.244Z,100010.25
2023-05-15T09:54:52.629Z,100016.56
2023-05-15T09:59:55.366Z,100011.03
2023-05-15T10:05:00.174Z,100031.41
2023-05-15T10:10:04.496Z,100006.81
2023-05-15T10:15:09.556Z,100013.91
2023-05-15T10:20:12.876Z,100023.97
2023-05-15T10:25:36.656Z,100014.50
2023-05-15T10:30:39.551Z,99996.16
2023-05-15T10:35:43.126Z,99994.66
2023-05-15T10:40:45.674Z,100004.91
2023-05-15T10:45:48.270Z,100008.03
2023-05-15T10:50:51.340Z,100008.56
2023-05-15T10:55:54.086Z,99973.38
2023-05-15T11:00:56.588Z,99963.66
2023-05-15T11:06:13.125Z,99975.41
2023-05-15T11:11:56.241Z,99990.88
2023-05-15T11:17:00.884Z,99936.28
2023-05-15T11:22:09.653Z,99981.00
2023-05-15T11:27:13.522Z,99979.13
2023-05-15T11:32:43.888Z,99986.44
2023-05-15T11:37:48.160Z,99983.31
2023-05-15T11:43:20.343Z,99953.25
2023-05-15T11:48:24.523Z,99936.06
2023-05-15T11:53:27.416Z,99937.34
2023-05-15T11:58:30.044Z,99950.13
2023-05-15T12:03:38.944Z,99951.78
2023-05-15T12:08:42.596Z,99914.34
2023-05-15T12:13:45.106Z,99941.59
2023-05-15T12:18:48.059Z,99911.00
2023-05-15T12:28:58.815Z,99817.59
2023-05-15T12:34:01.492Z,99871.50
2023-05-15T12:39:08.466Z,99806.28
2023-05-15T12:44:20.766Z,99886.63
2023-05-15T12:49:23.579Z,99917.00
2023-05-15T12:54:26.704Z,99910.91
2023-05-15T12:59:29.723Z,99829.03
2023-05-15T13:04:35.440Z,99814.34
2023-05-15T13:09:38.160Z,99903.03
2023-05-15T13:14:42.974Z,99899.50
2023-05-15T13:19:45.464Z,99874.19
2023-05-15T13:24:47.962Z,99822.97
2023-05-15T13:29:50.449Z,99850.53
2023-05-15T13:34:55.091Z,99884.31
2023-05-15T13:39:57.520Z,99870.59
2023-05-15T13:45:00.024Z,99799.53
2023-05-15T13:50:15.867Z,99859.19
2023-05-15T13:55:18.944Z,99793.34
2023-05-15T14:00:23.947Z,99881.06
2023-05-15T14:05:28.107Z,99875.13
2023-05-15T14:10:30.768Z,99878.00
2023-05-15T14:15:34.005Z,99869.47
2023-05-15T14:20:36.727Z,99869.09
2023-05-15T14:25:39.296Z,99864.88
2023-05-15T14:30:41.961Z,99842.69
2023-05-15T14:35:44.464Z,99797.13
2023-05-15T14:40:46.998Z,99741.84
2023-05-15T14:45:49.485Z,99811.47
2023-05-15T14:50:52.057Z,99771.94
2023-05-15T14:55:58.931Z,99858.78
2023-05-15T15:01:01.448Z,99761.94
2023-05-15T15:06:04.512Z,99625.22
2023-05-15T15:11:08.148Z,99827.53
2023-05-15T15:16:10.885Z,99794.19
2023-05-15T15:21:13.605Z,99789.13
2023-05-15T15:26:16.141Z,99847.53
2023-05-15T15:31:19.085Z,99856.47
2023-05-15T15:36:22.201Z,99820.25
2023-05-15T15:41:24.807Z,99806.69
2023-05-15T15:46:27.582Z,99816.38
2023-05-15T15:51:30.257Z,99807.69
2023-05-15T15:56:32.832Z,99817.66
2023-05-15T16:01:35.397Z,99713.66
2023-05-15T16:06:38.981Z,99780.97
2023-05-15T16:11:41.423Z,99801.25
2023-05-15T16:16:43.921Z,99804.09
2023-05-15T16:21:47.954Z,99832.91
2023-05-15T16:26:51.687Z,99824.53
2023-05-15T16:31:54.375Z,99787.59
2023-05-15T16:36:57.530Z,99825.19
2023-05-15T16:42:00.645Z,99803.78
2023-05-15T16:47:03.502Z,99838.22
2023-05-15T16:52:06.775Z,99821.22
2023-05-15T16:57:09.264Z,99775.50
2023-05-15T17:02:11.822Z,99853.31
2023-05-15T17:07:14.413Z,99791.94
2023-05-15T17:12:17.224Z,99667.22
2023-05-15T17:17:19.775Z,99790.09
2023-05-15T17:22:23.210Z,99858.19
2023-05-15T17:27:25.859Z,99818.69
2023-05-15T17:32:28.528Z,99802.50
2023-05-15T17:37:31.229Z,99783.66
2023-05-15T17:42:33.745Z,99843.31
2023-05-15T17:47:36.325Z,99821.81
2023-05-15T17:52:38.944Z,99797.84
2023-05-15T17:57:41.683Z,99886.00
2023-05-15T18:02:44.216Z,99888.03
2023-05-15T18:07:48.590Z,99843.00
2023-05-15T18:12:51.233Z,99894.69
2023-05-15T18:17:53.795Z,99865.28
2023-05-15T18:22:56.331Z,99841.97
2023-05-15T18:27:59.017Z,99870.13
2023-05-15T18:33:01.839Z,99875.53
2023-05-15T18:38:04.634Z,99899.25
2023-05-15T18:43:08.497Z,99885.53
2023-05-15T18:48:11.086Z,99858.63
2023-05-15T18:53:13.797Z,99809.13
2023-05-15T18:58:16.788Z,99905.22
2023-05-15T19:03:21.167Z,99845.25
2023-05-15T19:08:23.939Z,99857.50
2023-05-15T19:13:30.159Z,99885.53
2023-05-15T19:18:32.784Z,99885.72
2023-05-15T19:23:35.542Z,99876.19
2023-05-15T19:28:38.161Z,99906.84
2023-05-15T19:33:43.352Z,99925.28
2023-05-15T19:38:46.116Z,99839.84
2023-05-15T19:43:50.986Z,99933.38
2023-05-15T19:48:54.446Z,99908.97
2023-05-15T19:53:57.097Z,99908.16
2023-05-15T19:59:00.880Z,99928.28
2023-05-15T20:04:03.710Z,99871.59
2023-05-15T20:09:06.462Z,99921.41
2023-05-15T20:14:09.057Z,99938.94
2023-05-15T20:19:17.052Z,99896.19
2023-05-15T20:24:19.913Z,99898.84
2023-05-15T20:29:23.211Z,99877.00
2023-05-15T20:34:25.797Z,99628.28
2023-05-15T20:39:28.306Z,99870.06
2023-05-15T20:44:31.063Z,99888.44
2023-05-15T20:49:33.599Z,99890.22
2023-05-15T20:54:36.155Z,99944.41
2023-05-15T20:59:38.660Z,99923.44
2023-05-15T21:04:41.603Z,99923.47
2023-05-15T21:09:44.245Z,99836.94
2023-05-15T21:14:47.077Z,99900.72
2023-05-15T21:19:49.959Z,99780.16
2023-05-15T21:24:52.710Z,99794.13
2023-05-15T21:29:55.382Z,99850.03
2023-05-15T21:34:57.831Z,99703.25
2023-05-15T21:40:00.553Z,99946.16
2023-05-15T21:45:07.127Z,99947.03
2023-05-15T21:50:09.969Z,99804.53
2023-05-15T21:55:12.387Z,99908.50
2023-05-15T22:00:16.559Z,99977.56
2023-05-15T22:05:19.142Z,99981.06
2023-05-15T22:10:22.680Z,99984.50
2023-05-15T22:15:25.190Z,99953.84
2023-05-15T22:20:29.503Z,99931.03
2023-05-15T22:25:32.182Z,99985.22
2023-05-15T22:30:35.465Z,99979.97
2023-05-15T22:35:38.299Z,99977.31
2023-05-15T22:40:40.969Z,99932.59
2023-05-15T22:45:43.731Z,99906.31
2023-05-15T22:50:46.453Z,99947.44
2023-05-15T22:55:49.147Z,99932.50
2023-05-15T23:00:52.146Z,99952.63
2023-05-15T23:05:55.185Z,99879.03
2023-05-15T23:10:57.905Z,99977.91
2023-05-15T23:16:00.758Z,99916.47
2023-05-15T23:21:05.112Z,99856.09
2023-05-15T23:26:08.076Z,99967.25
2023-05-15T23:31:13.428Z,99972.38
2023-05-15T23:36:16.469Z,99979.31
2023-05-15T23:41:19.598Z,99969.66
2023-05-15T23:46:22.656Z,99953.81
2023-05-15T23:51:25.345Z,99972.97
2023-05-15T23:56:27.769Z,99970.31
